sensor_id;sensor_type;location;lat;lon;timestamp;P1;durP1;ratioP1;P2;durP2;ratioP2
32216;SDS011;67098;51.140;4.088;2023-04-02T00:00:31;16.77;;;11.45;;
32216;SDS011;67098;51.140;4.088;2023-04-02T00:02:58;17.50;;;10.75;;
32216;SDS011;67098;51.140;4.088;2023-04-02T00:08:01;17.58;;;10.85;;
32216;SDS011;67098;51.140;4.088;2023-04-02T00:10:35;17.02;;;10.25;;
32216;SDS011;67098;51.140;4.088;2023-04-02T00:15:45;17.83;;;10.90;;
32216;SDS011;67098;51.140;4.088;2023-04-02T00:18:17;18.35;;;11.40;;
32216;SDS011;67098;51.140;4.088;2023-04-02T00:20:46;18.55;;;11.55;;
32216;SDS011;67098;51.140;4.088;2023-04-02T00:23:17;20.17;;;12.98;;
32216;SDS011;67098;51.140;4.088;2023-04-02T00:25:44;17.77;;;12.45;;
32216;SDS011;67098;51.140;4.088;2023-04-02T00:28:17;17.92;;;12.18;;
32216;SDS011;67098;51.140;4.088;2023-04-02T00:30:47;17.77;;;11.95;;
32216;SDS011;67098;51.140;4.088;2023-04-02T00:33:18;18.77;;;12.30;;
32216;SDS011;67098;51.140;4.088;2023-04-02T00:35:46;17.77;;;11.90;;
32216;SDS011;67098;51.140;4.088;2023-04-02T00:38:25;15.02;;;10.68;;
32216;SDS011;67098;51.140;4.088;2023-04-02T00:40:54;18.42;;;11.27;;
32216;SDS011;67098;51.140;4.088;2023-04-02T00:43:23;19.40;;;11.88;;
32216;SDS011;67098;51.140;4.088;2023-04-02T00:45:56;18.02;;;11.60;;
32216;SDS011;67098;51.140;4.088;2023-04-02T00:50:57;16.98;;;11.73;;
32216;SDS011;67098;51.140;4.088;2023-04-02T00:53:32;19.58;;;12.13;;
32216;SDS011;67098;51.140;4.088;2023-04-02T00:55:58;16.17;;;11.75;;
32216;SDS011;67098;51.140;4.088;2023-04-02T00:58:29;17.30;;;11.48;;
32216;SDS011;67098;51.140;4.088;2023-04-02T01:00:58;16.92;;;11.15;;
32216;SDS011;67098;51.140;4.088;2023-04-02T01:06:08;15.80;;;10.35;;
32216;SDS011;67098;51.140;4.088;2023-04-02T01:16:59;17.42;;;11.23;;
32216;SDS011;67098;51.140;4.088;2023-04-02T01:25:00;16.88;;;11.93;;
32216;SDS011;67098;51.140;4.088;2023-04-02T01:27:37;19.33;;;12.02;;
32216;SDS011;67098;51.140;4.088;2023-04-02T01:30:09;16.92;;;10.50;;
32216;SDS011;67098;51.140;4.088;2023-04-02T01:32:36;16.52;;;10.68;;
32216;SDS011;67098;51.140;4.088;2023-04-02T01:35:03;18.45;;;11.48;;
32216;SDS011;67098;51.140;4.088;2023-04-02T01:45:49;16.17;;;11.30;;
32216;SDS011;67098;51.140;4.088;2023-04-02T01:48:18;17.42;;;11.68;;
32216;SDS011;67098;51.140;4.088;2023-04-02T01:50:48;16.85;;;11.95;;
32216;SDS011;67098;51.140;4.088;2023-04-02T01:53:17;17.13;;;11.35;;
32216;SDS011;67098;51.140;4.088;2023-04-02T01:55:46;18.10;;;11.20;;
32216;SDS011;67098;51.140;4.088;2023-04-02T01:58:35;22.80;;;11.93;;
32216;SDS011;67098;51.140;4.088;2023-04-02T02:03:31;21.17;;;13.30;;
32216;SDS011;67098;51.140;4.088;2023-04-02T02:05:57;15.52;;;10.45;;
32216;SDS011;67098;51.140;4.088;2023-04-02T02:11:04;14.38;;;9.60;;
32216;SDS011;67098;51.140;4.088;2023-04-02T02:13:31;15.43;;;9.93;;
32216;SDS011;67098;51.140;4.088;2023-04-02T02:15:58;15.05;;;9.82;;
32216;SDS011;67098;51.140;4.088;2023-04-02T02:18:24;15.95;;;10.48;;
32216;SDS011;67098;51.140;4.088;2023-04-02T02:20:51;16.65;;;9.82;;
32216;SDS011;67098;51.140;4.088;2023-04-02T02:23:18;17.02;;;10.32;;
32216;SDS011;67098;51.140;4.088;2023-04-02T02:25:45;14.98;;;9.88;;
32216;SDS011;67098;51.140;4.088;2023-04-02T02:28:28;18.88;;;11.30;;
32216;SDS011;67098;51.140;4.088;2023-04-02T02:31:17;17.13;;;10.70;;
32216;SDS011;67098;51.140;4.088;2023-04-02T02:33:51;17.98;;;10.65;;
32216;SDS011;67098;51.140;4.088;2023-04-02T02:36:21;17.63;;;11.18;;
32216;SDS011;67098;51.140;4.088;2023-04-02T02:39:03;18.00;;;11.45;;
32216;SDS011;67098;51.140;4.088;2023-04-02T02:41:44;21.50;;;11.65;;
32216;SDS011;67098;51.140;4.088;2023-04-02T02:44:19;19.13;;;11.55;;
32216;SDS011;67098;51.140;4.088;2023-04-02T02:46:53;18.83;;;11.05;;
32216;SDS011;67098;51.140;4.088;2023-04-02T02:49:32;16.88;;;10.88;;
32216;SDS011;67098;51.140;4.088;2023-04-02T02:54:33;17.38;;;10.80;;
32216;SDS011;67098;51.140;4.088;2023-04-02T02:57:06;19.95;;;12.05;;
32216;SDS011;67098;51.140;4.088;2023-04-02T02:59:39;16.08;;;10.90;;
32216;SDS011;67098;51.140;4.088;2023-04-02T03:02:06;18.33;;;11.13;;
32216;SDS011;67098;51.140;4.088;2023-04-02T03:04:32;19.63;;;11.65;;
32216;SDS011;67098;51.140;4.088;2023-04-02T03:07:00;18.38;;;11.35;;
32216;SDS011;67098;51.140;4.088;2023-04-02T03:14:52;17.75;;;10.75;;
32216;SDS011;67098;51.140;4.088;2023-04-02T03:17:43;23.42;;;12.00;;
32216;SDS011;67098;51.140;4.088;2023-04-02T03:22:46;19.48;;;11.15;;
32216;SDS011;67098;51.140;4.088;2023-04-02T03:28:14;20.95;;;11.52;;
32216;SDS011;67098;51.140;4.088;2023-04-02T03:30:50;21.88;;;12.20;;
32216;SDS011;67098;51.140;4.088;2023-04-02T03:33:22;19.17;;;11.88;;
32216;SDS011;67098;51.140;4.088;2023-04-02T03:38:26;20.23;;;11.63;;
32216;SDS011;67098;51.140;4.088;2023-04-02T03:41:00;21.88;;;12.18;;
32216;SDS011;67098;51.140;4.088;2023-04-02T03:44:03;24.83;;;12.65;;
32216;SDS011;67098;51.140;4.088;2023-04-02T03:48:59;28.50;;;14.60;;
32216;SDS011;67098;51.140;4.088;2023-04-02T03:51:32;23.80;;;13.75;;
32216;SDS011;67098;51.140;4.088;2023-04-02T03:54:04;28.48;;;13.63;;
32216;SDS011;67098;51.140;4.088;2023-04-02T03:56:37;26.80;;;15.00;;
32216;SDS011;67098;51.140;4.088;2023-04-02T04:04:50;26.85;;;13.93;;
32216;SDS011;67098;51.140;4.088;2023-04-02T04:07:38;24.80;;;14.73;;
32216;SDS011;67098;51.140;4.088;2023-04-02T04:10:05;24.75;;;14.98;;
32216;SDS011;67098;51.140;4.088;2023-04-02T04:12:39;22.17;;;14.82;;
32216;SDS011;67098;51.140;4.088;2023-04-02T04:23:26;21.88;;;13.63;;
32216;SDS011;67098;51.140;4.088;2023-04-02T04:26:01;24.55;;;13.70;;
32216;SDS011;67098;51.140;4.088;2023-04-02T04:29:00;27.58;;;14.75;;
32216;SDS011;67098;51.140;4.088;2023-04-02T04:31:48;31.95;;;14.35;;
32216;SDS011;67098;51.140;4.088;2023-04-02T04:34:20;30.10;;;16.00;;
32216;SDS011;67098;51.140;4.088;2023-04-02T04:37:30;24.10;;;14.00;;
32216;SDS011;67098;51.140;4.088;2023-04-02T04:40:03;28.15;;;15.20;;
32216;SDS011;67098;51.140;4.088;2023-04-02T04:42:44;28.60;;;14.82;;
32216;SDS011;67098;51.140;4.088;2023-04-02T04:48:18;31.45;;;16.77;;
32216;SDS011;67098;51.140;4.088;2023-04-02T04:50:52;28.75;;;15.70;;
32216;SDS011;67098;51.140;4.088;2023-04-02T04:53:44;28.75;;;15.95;;
32216;SDS011;67098;51.140;4.088;2023-04-02T04:56:11;27.55;;;14.88;;
32216;SDS011;67098;51.140;4.088;2023-04-02T04:58:44;27.45;;;15.57;;
32216;SDS011;67098;51.140;4.088;2023-04-02T05:01:39;26.52;;;14.82;;
32216;SDS011;67098;51.140;4.088;2023-04-02T05:07:02;26.23;;;15.48;;
32216;SDS011;67098;51.140;4.088;2023-04-02T05:09:52;28.33;;;15.88;;
32216;SDS011;67098;51.140;4.088;2023-04-02T05:20:13;29.58;;;16.05;;
32216;SDS011;67098;51.140;4.088;2023-04-02T05:22:51;26.42;;;15.40;;
32216;SDS011;67098;51.140;4.088;2023-04-02T05:25:34;26.83;;;15.35;;
32216;SDS011;67098;51.140;4.088;2023-04-02T05:30:53;29.90;;;16.35;;
32216;SDS011;67098;51.140;4.088;2023-04-02T05:33:26;27.10;;;15.25;;
32216;SDS011;67098;51.140;4.088;2023-04-02T05:38:34;26.23;;;14.63;;
32216;SDS011;67098;51.140;4.088;2023-04-02T05:41:07;24.45;;;14.25;;
32216;SDS011;67098;51.140;4.088;2023-04-02T05:43:36;26.70;;;13.60;;
32216;SDS011;67098;51.140;4.088;2023-04-02T05:46:13;24.58;;;13.93;;
32216;SDS011;67098;51.140;4.088;2023-04-02T05:48:50;26.90;;;13.95;;
32216;SDS011;67098;51.140;4.088;2023-04-02T05:51:23;24.20;;;14.15;;
32216;SDS011;67098;51.140;4.088;2023-04-02T05:53:59;27.10;;;14.70;;
32216;SDS011;67098;51.140;4.088;2023-04-02T05:59:06;22.35;;;13.13;;
32216;SDS011;67098;51.140;4.088;2023-04-02T06:01:46;24.15;;;13.93;;
32216;SDS011;67098;51.140;4.088;2023-04-02T06:04:31;23.88;;;13.15;;
32216;SDS011;67098;51.140;4.088;2023-04-02T06:07:15;21.70;;;12.90;;
32216;SDS011;67098;51.140;4.088;2023-04-02T06:10:06;23.27;;;14.38;;
32216;SDS011;67098;51.140;4.088;2023-04-02T06:12:40;25.40;;;14.15;;
32216;SDS011;67098;51.140;4.088;2023-04-02T06:15:16;23.58;;;13.27;;
32216;SDS011;67098;51.140;4.088;2023-04-02T06:17:52;29.15;;;14.43;;
32216;SDS011;67098;51.140;4.088;2023-04-02T06:20:41;30.48;;;14.45;;
32216;SDS011;67098;51.140;4.088;2023-04-02T06:23:15;26.23;;;14.80;;
32216;SDS011;67098;51.140;4.088;2023-04-02T06:26:41;24.52;;;14.00;;
32216;SDS011;67098;51.140;4.088;2023-04-02T06:31:55;25.52;;;13.00;;
32216;SDS011;67098;51.140;4.088;2023-04-02T06:34:24;24.33;;;14.70;;
32216;SDS011;67098;51.140;4.088;2023-04-02T06:36:56;21.33;;;12.30;;
32216;SDS011;67098;51.140;4.088;2023-04-02T06:39:28;26.63;;;13.55;;
32216;SDS011;67098;51.140;4.088;2023-04-02T06:42:01;28.40;;;13.43;;
32216;SDS011;67098;51.140;4.088;2023-04-02T06:44:32;28.23;;;13.27;;
32216;SDS011;67098;51.140;4.088;2023-04-02T06:47:47;21.92;;;12.57;;
32216;SDS011;67098;51.140;4.088;2023-04-02T06:52:54;24.20;;;14.50;;
32216;SDS011;67098;51.140;4.088;2023-04-02T06:58:42;24.95;;;13.43;;
32216;SDS011;67098;51.140;4.088;2023-04-02T07:01:08;26.23;;;13.75;;
32216;SDS011;67098;51.140;4.088;2023-04-02T07:03:51;23.35;;;13.20;;
32216;SDS011;67098;51.140;4.088;2023-04-02T07:06:18;26.02;;;14.00;;
32216;SDS011;67098;51.140;4.088;2023-04-02T07:08:44;23.98;;;14.32;;
32216;SDS011;67098;51.140;4.088;2023-04-02T07:11:17;29.40;;;13.82;;
32216;SDS011;67098;51.140;4.088;2023-04-02T07:13:46;17.20;;;11.23;;
32216;SDS011;67098;51.140;4.088;2023-04-02T07:16:21;19.35;;;10.00;;
32216;SDS011;67098;51.140;4.088;2023-04-02T07:18:52;19.23;;;10.98;;
32216;SDS011;67098;51.140;4.088;2023-04-02T07:21:19;19.35;;;11.45;;
32216;SDS011;67098;51.140;4.088;2023-04-02T07:23:46;20.50;;;11.43;;
32216;SDS011;67098;51.140;4.088;2023-04-02T07:26:13;18.48;;;11.00;;
32216;SDS011;67098;51.140;4.088;2023-04-02T07:28:44;21.45;;;11.40;;
32216;SDS011;67098;51.140;4.088;2023-04-02T07:31:17;20.65;;;11.32;;
32216;SDS011;67098;51.140;4.088;2023-04-02T07:33:44;25.55;;;11.38;;
32216;SDS011;67098;51.140;4.088;2023-04-02T07:36:17;19.73;;;11.27;;
32216;SDS011;67098;51.140;4.088;2023-04-02T07:38:47;17.00;;;10.55;;
32216;SDS011;67098;51.140;4.088;2023-04-02T07:41:13;18.33;;;10.88;;
32216;SDS011;67098;51.140;4.088;2023-04-02T07:43:40;17.08;;;10.60;;
32216;SDS011;67098;51.140;4.088;2023-04-02T07:46:07;20.80;;;11.60;;
32216;SDS011;67098;51.140;4.088;2023-04-02T07:48:34;17.15;;;10.73;;
32216;SDS011;67098;51.140;4.088;2023-04-02T07:51:00;23.73;;;10.35;;
32216;SDS011;67098;51.140;4.088;2023-04-02T07:53:30;20.05;;;11.05;;
32216;SDS011;67098;51.140;4.088;2023-04-02T07:56:02;20.02;;;10.00;;
32216;SDS011;67098;51.140;4.088;2023-04-02T07:58:29;18.20;;;10.07;;
32216;SDS011;67098;51.140;4.088;2023-04-02T08:00:56;18.52;;;9.68;;
32216;SDS011;67098;51.140;4.088;2023-04-02T08:03:22;17.98;;;9.45;;
32216;SDS011;67098;51.140;4.088;2023-04-02T08:05:57;16.65;;;9.43;;
32216;SDS011;67098;51.140;4.088;2023-04-02T08:08:23;17.67;;;10.60;;
32216;SDS011;67098;51.140;4.088;2023-04-02T08:10:49;17.95;;;10.07;;
32216;SDS011;67098;51.140;4.088;2023-04-02T08:13:15;16.38;;;10.70;;
32216;SDS011;67098;51.140;4.088;2023-04-02T08:15:42;21.25;;;11.10;;
32216;SDS011;67098;51.140;4.088;2023-04-02T08:18:08;18.15;;;11.07;;
32216;SDS011;67098;51.140;4.088;2023-04-02T08:20:34;22.08;;;11.68;;
32216;SDS011;67098;51.140;4.088;2023-04-02T08:23:01;23.95;;;11.75;;
32216;SDS011;67098;51.140;4.088;2023-04-02T08:25:27;19.48;;;10.57;;
32216;SDS011;67098;51.140;4.088;2023-04-02T08:27:53;17.40;;;10.48;;
32216;SDS011;67098;51.140;4.088;2023-04-02T08:30:18;18.65;;;10.90;;
32216;SDS011;67098;51.140;4.088;2023-04-02T08:32:45;15.65;;;9.68;;
32216;SDS011;67098;51.140;4.088;2023-04-02T08:35:12;17.30;;;9.80;;
32216;SDS011;67098;51.140;4.088;2023-04-02T08:37:40;17.67;;;10.65;;
32216;SDS011;67098;51.140;4.088;2023-04-02T08:40:07;19.17;;;10.98;;
32216;SDS011;67098;51.140;4.088;2023-04-02T08:42:47;16.83;;;10.63;;
32216;SDS011;67098;51.140;4.088;2023-04-02T08:48:20;18.77;;;10.82;;
32216;SDS011;67098;51.140;4.088;2023-04-02T08:50:47;17.08;;;9.85;;
32216;SDS011;67098;51.140;4.088;2023-04-02T08:53:21;20.10;;;10.45;;
32216;SDS011;67098;51.140;4.088;2023-04-02T08:58:49;17.67;;;10.60;;
32216;SDS011;67098;51.140;4.088;2023-04-02T09:03:58;19.20;;;11.00;;
32216;SDS011;67098;51.140;4.088;2023-04-02T09:06:24;17.58;;;10.60;;
32216;SDS011;67098;51.140;4.088;2023-04-02T09:08:53;18.25;;;10.25;;
32216;SDS011;67098;51.140;4.088;2023-04-02T09:11:31;20.80;;;11.18;;
32216;SDS011;67098;51.140;4.088;2023-04-02T09:14:10;23.60;;;10.55;;
32216;SDS011;67098;51.140;4.088;2023-04-02T09:16:59;17.13;;;10.23;;
32216;SDS011;67098;51.140;4.088;2023-04-02T09:19:32;18.95;;;9.27;;
32216;SDS011;67098;51.140;4.088;2023-04-02T09:22:06;17.17;;;9.27;;
32216;SDS011;67098;51.140;4.088;2023-04-02T09:24:39;15.90;;;9.57;;
32216;SDS011;67098;51.140;4.088;2023-04-02T09:27:10;17.40;;;9.63;;
32216;SDS011;67098;51.140;4.088;2023-04-02T09:29:43;15.13;;;9.48;;
32216;SDS011;67098;51.140;4.088;2023-04-02T09:32:24;16.80;;;9.85;;
32216;SDS011;67098;51.140;4.088;2023-04-02T09:35:04;19.33;;;9.95;;
32216;SDS011;67098;51.140;4.088;2023-04-02T09:37:33;11.98;;;8.57;;
32216;SDS011;67098;51.140;4.088;2023-04-02T09:43:02;17.58;;;9.60;;
32216;SDS011;67098;51.140;4.088;2023-04-02T09:45:43;16.55;;;9.25;;
32216;SDS011;67098;51.140;4.088;2023-04-02T09:48:23;17.23;;;9.85;;
32216;SDS011;67098;51.140;4.088;2023-04-02T09:50:50;18.13;;;9.35;;
32216;SDS011;67098;51.140;4.088;2023-04-02T09:53:35;19.70;;;9.07;;
32216;SDS011;67098;51.140;4.088;2023-04-02T09:58:37;20.80;;;9.13;;
32216;SDS011;67098;51.140;4.088;2023-04-02T10:01:03;15.18;;;8.13;;
32216;SDS011;67098;51.140;4.088;2023-04-02T10:03:32;16.92;;;8.00;;
32216;SDS011;67098;51.140;4.088;2023-04-02T10:06:06;20.92;;;8.43;;
32216;SDS011;67098;51.140;4.088;2023-04-02T10:08:36;14.80;;;7.53;;
32216;SDS011;67098;51.140;4.088;2023-04-02T10:11:06;14.48;;;7.40;;
32216;SDS011;67098;51.140;4.088;2023-04-02T10:16:29;12.93;;;7.03;;
32216;SDS011;67098;51.140;4.088;2023-04-02T10:21:32;12.70;;;6.32;;
32216;SDS011;67098;51.140;4.088;2023-04-02T10:24:01;11.60;;;6.32;;
32216;SDS011;67098;51.140;4.088;2023-04-02T10:32:29;11.85;;;6.55;;
32216;SDS011;67098;51.140;4.088;2023-04-02T10:35:03;12.52;;;7.18;;
32216;SDS011;67098;51.140;4.088;2023-04-02T10:40:18;12.80;;;6.85;;
32216;SDS011;67098;51.140;4.088;2023-04-02T10:43:25;17.90;;;7.85;;
32216;SDS011;67098;51.140;4.088;2023-04-02T10:46:05;14.55;;;7.32;;
32216;SDS011;67098;51.140;4.088;2023-04-02T10:51:44;14.07;;;6.45;;
32216;SDS011;67098;51.140;4.088;2023-04-02T10:56:52;12.50;;;6.15;;
32216;SDS011;67098;51.140;4.088;2023-04-02T10:59:29;10.27;;;6.28;;
32216;SDS011;67098;51.140;4.088;2023-04-02T11:01:59;12.25;;;6.68;;
32216;SDS011;67098;51.140;4.088;2023-04-02T11:07:05;15.80;;;6.53;;
32216;SDS011;67098;51.140;4.088;2023-04-02T11:09:38;13.52;;;7.22;;
32216;SDS011;67098;51.140;4.088;2023-04-02T11:12:06;13.25;;;6.70;;
32216;SDS011;67098;51.140;4.088;2023-04-02T11:14:44;9.93;;;6.05;;
32216;SDS011;67098;51.140;4.088;2023-04-02T11:17:10;12.50;;;6.38;;
32216;SDS011;67098;51.140;4.088;2023-04-02T11:19:38;11.20;;;6.53;;
32216;SDS011;67098;51.140;4.088;2023-04-02T11:22:12;14.05;;;6.20;;
32216;SDS011;67098;51.140;4.088;2023-04-02T11:24:46;15.95;;;6.80;;
32216;SDS011;67098;51.140;4.088;2023-04-02T11:27:22;13.40;;;6.68;;
32216;SDS011;67098;51.140;4.088;2023-04-02T11:30:02;14.20;;;6.93;;
32216;SDS011;67098;51.140;4.088;2023-04-02T11:32:36;10.70;;;6.40;;
32216;SDS011;67098;51.140;4.088;2023-04-02T11:37:52;16.50;;;6.20;;
32216;SDS011;67098;51.140;4.088;2023-04-02T11:46:01;13.20;;;6.65;;
32216;SDS011;67098;51.140;4.088;2023-04-02T11:52:20;10.75;;;5.40;;
32216;SDS011;67098;51.140;4.088;2023-04-02T12:00:48;28.77;;;6.55;;
32216;SDS011;67098;51.140;4.088;2023-04-02T12:06:11;11.52;;;4.72;;
32216;SDS011;67098;51.140;4.088;2023-04-02T12:11:52;11.55;;;4.95;;
32216;SDS011;67098;51.140;4.088;2023-04-02T12:14:30;7.13;;;4.88;;
32216;SDS011;67098;51.140;4.088;2023-04-02T12:16:56;10.55;;;4.97;;
32216;SDS011;67098;51.140;4.088;2023-04-02T12:19:23;7.10;;;5.15;;
32216;SDS011;67098;51.140;4.088;2023-04-02T12:21:52;7.47;;;5.22;;
32216;SDS011;67098;51.140;4.088;2023-04-02T12:24:18;10.20;;;5.28;;
32216;SDS011;67098;51.140;4.088;2023-04-02T12:26:46;9.82;;;5.88;;
32216;SDS011;67098;51.140;4.088;2023-04-02T12:31:44;7.22;;;5.50;;
32216;SDS011;67098;51.140;4.088;2023-04-02T12:34:15;9.57;;;4.97;;
32216;SDS011;67098;51.140;4.088;2023-04-02T12:36:56;12.07;;;8.15;;
32216;SDS011;67098;51.140;4.088;2023-04-02T12:39:32;11.63;;;6.65;;
32216;SDS011;67098;51.140;4.088;2023-04-02T12:41:58;14.23;;;6.18;;
32216;SDS011;67098;51.140;4.088;2023-04-02T12:44:25;11.70;;;6.55;;
32216;SDS011;67098;51.140;4.088;2023-04-02T12:46:52;11.98;;;5.95;;
32216;SDS011;67098;51.140;4.088;2023-04-02T12:49:24;10.68;;;6.65;;
32216;SDS011;67098;51.140;4.088;2023-04-02T12:51:50;10.18;;;7.15;;
32216;SDS011;67098;51.140;4.088;2023-04-02T12:54:17;13.18;;;7.30;;
32216;SDS011;67098;51.140;4.088;2023-04-02T12:56:44;11.20;;;7.28;;
32216;SDS011;67098;51.140;4.088;2023-04-02T13:02:00;19.23;;;8.10;;
32216;SDS011;67098;51.140;4.088;2023-04-02T13:04:27;15.10;;;7.15;;
32216;SDS011;67098;51.140;4.088;2023-04-02T13:06:53;11.98;;;6.68;;
32216;SDS011;67098;51.140;4.088;2023-04-02T13:09:53;15.75;;;7.22;;
32216;SDS011;67098;51.140;4.088;2023-04-02T13:12:34;12.70;;;5.75;;
32216;SDS011;67098;51.140;4.088;2023-04-02T13:15:04;11.45;;;6.75;;
32216;SDS011;67098;51.140;4.088;2023-04-02T13:18:05;12.95;;;7.47;;
32216;SDS011;67098;51.140;4.088;2023-04-02T13:20:38;13.57;;;7.82;;
32216;SDS011;67098;51.140;4.088;2023-04-02T13:25:49;13.48;;;7.35;;
32216;SDS011;67098;51.140;4.088;2023-04-02T13:28:15;13.38;;;7.30;;
32216;SDS011;67098;51.140;4.088;2023-04-02T13:30:41;11.15;;;7.15;;
32216;SDS011;67098;51.140;4.088;2023-04-02T13:33:06;12.27;;;6.85;;
32216;SDS011;67098;51.140;4.088;2023-04-02T13:35:32;13.85;;;7.32;;
32216;SDS011;67098;51.140;4.088;2023-04-02T13:37:58;13.70;;;7.82;;
32216;SDS011;67098;51.140;4.088;2023-04-02T13:40:26;12.98;;;7.35;;
32216;SDS011;67098;51.140;4.088;2023-04-02T13:42:52;10.38;;;7.13;;
32216;SDS011;67098;51.140;4.088;2023-04-02T13:45:26;14.75;;;8.45;;
32216;SDS011;67098;51.140;4.088;2023-04-02T13:47:54;17.20;;;8.43;;
32216;SDS011;67098;51.140;4.088;2023-04-02T13:50:24;17.70;;;9.07;;
32216;SDS011;67098;51.140;4.088;2023-04-02T13:52:51;12.95;;;8.13;;
32216;SDS011;67098;51.140;4.088;2023-04-02T13:55:18;14.68;;;8.02;;
32216;SDS011;67098;51.140;4.088;2023-04-02T13:57:47;14.00;;;8.50;;
32216;SDS011;67098;51.140;4.088;2023-04-02T14:00:14;18.33;;;10.70;;
32216;SDS011;67098;51.140;4.088;2023-04-02T14:02:41;18.67;;;10.38;;
32216;SDS011;67098;51.140;4.088;2023-04-02T14:10:48;24.60;;;11.93;;
32216;SDS011;67098;51.140;4.088;2023-04-02T14:21:47;13.57;;;9.10;;
32216;SDS011;67098;51.140;4.088;2023-04-02T14:30:13;11.40;;;6.72;;
32216;SDS011;67098;51.140;4.088;2023-04-02T14:35:36;12.48;;;6.50;;
32216;SDS011;67098;51.140;4.088;2023-04-02T14:41:21;8.30;;;4.70;;
32216;SDS011;67098;51.140;4.088;2023-04-02T14:43:58;6.78;;;4.32;;
32216;SDS011;67098;51.140;4.088;2023-04-02T14:46:30;7.80;;;4.32;;
32216;SDS011;67098;51.140;4.088;2023-04-02T14:49:00;8.57;;;4.20;;
32216;SDS011;67098;51.140;4.088;2023-04-02T14:51:44;4.57;;;3.72;;
32216;SDS011;67098;51.140;4.088;2023-04-02T14:56:57;5.88;;;4.00;;
32216;SDS011;67098;51.140;4.088;2023-04-02T15:02:21;10.38;;;3.47;;
32216;SDS011;67098;51.140;4.088;2023-04-02T15:07:40;5.68;;;3.88;;
32216;SDS011;67098;51.140;4.088;2023-04-02T15:12:43;9.75;;;4.30;;
32216;SDS011;67098;51.140;4.088;2023-04-02T15:17:43;5.75;;;4.03;;
32216;SDS011;67098;51.140;4.088;2023-04-02T15:20:13;5.97;;;4.57;;
32216;SDS011;67098;51.140;4.088;2023-04-02T15:25:36;6.55;;;3.05;;
32216;SDS011;67098;51.140;4.088;2023-04-02T15:30:46;7.55;;;3.50;;
32216;SDS011;67098;51.140;4.088;2023-04-02T15:38:46;4.13;;;3.00;;
32216;SDS011;67098;51.140;4.088;2023-04-02T15:41:24;3.75;;;2.78;;
32216;SDS011;67098;51.140;4.088;2023-04-02T15:56:51;6.07;;;3.50;;
32216;SDS011;67098;51.140;4.088;2023-04-02T16:04:18;4.47;;;2.92;;
32216;SDS011;67098;51.140;4.088;2023-04-02T16:12:32;7.75;;;2.78;;
32216;SDS011;67098;51.140;4.088;2023-04-02T16:15:06;5.55;;;2.17;;
32216;SDS011;67098;51.140;4.088;2023-04-02T16:17:42;4.95;;;3.05;;
32216;SDS011;67098;51.140;4.088;2023-04-02T16:25:40;4.07;;;2.70;;
32216;SDS011;67098;51.140;4.088;2023-04-02T16:39:21;5.20;;;3.42;;
32216;SDS011;67098;51.140;4.088;2023-04-02T16:41:59;5.75;;;3.13;;
32216;SDS011;67098;51.140;4.088;2023-04-02T16:50:07;6.97;;;2.97;;
32216;SDS011;67098;51.140;4.088;2023-04-02T16:55:34;5.38;;;2.97;;
32216;SDS011;67098;51.140;4.088;2023-04-02T17:00:59;6.38;;;3.75;;
32216;SDS011;67098;51.140;4.088;2023-04-02T17:09:07;12.07;;;5.47;;
32216;SDS011;67098;51.140;4.088;2023-04-02T17:11:49;8.15;;;3.78;;
32216;SDS011;67098;51.140;4.088;2023-04-02T17:14:40;9.00;;;4.25;;
32216;SDS011;67098;51.140;4.088;2023-04-02T17:17:13;23.63;;;9.82;;
32216;SDS011;67098;51.140;4.088;2023-04-02T17:19:40;14.13;;;7.07;;
32216;SDS011;67098;51.140;4.088;2023-04-02T17:22:08;14.52;;;6.95;;
32216;SDS011;67098;51.140;4.088;2023-04-02T17:24:48;15.20;;;6.03;;
32216;SDS011;67098;51.140;4.088;2023-04-02T17:27:31;18.38;;;7.03;;
32216;SDS011;67098;51.140;4.088;2023-04-02T17:32:46;29.88;;;15.27;;
32216;SDS011;67098;51.140;4.088;2023-04-02T17:35:16;13.23;;;6.25;;
32216;SDS011;67098;51.140;4.088;2023-04-02T17:46:18;9.65;;;5.65;;
32216;SDS011;67098;51.140;4.088;2023-04-02T17:49:05;9.20;;;5.20;;
32216;SDS011;67098;51.140;4.088;2023-04-02T17:52:00;7.53;;;5.15;;
32216;SDS011;67098;51.140;4.088;2023-04-02T18:03:17;11.20;;;5.35;;
32216;SDS011;67098;51.140;4.088;2023-04-02T18:05:53;14.48;;;5.78;;
32216;SDS011;67098;51.140;4.088;2023-04-02T18:11:36;13.52;;;6.40;;
32216;SDS011;67098;51.140;4.088;2023-04-02T18:19:15;11.68;;;6.28;;
32216;SDS011;67098;51.140;4.088;2023-04-02T18:27:16;11.70;;;5.40;;
32216;SDS011;67098;51.140;4.088;2023-04-02T18:41:00;11.75;;;5.68;;
32216;SDS011;67098;51.140;4.088;2023-04-02T18:43:32;16.15;;;6.75;;
32216;SDS011;67098;51.140;4.088;2023-04-02T18:46:31;11.98;;;6.05;;
32216;SDS011;67098;51.140;4.088;2023-04-02T18:49:27;11.85;;;5.68;;
32216;SDS011;67098;51.140;4.088;2023-04-02T18:52:01;10.70;;;5.97;;
32216;SDS011;67098;51.140;4.088;2023-04-02T18:54:34;12.48;;;6.47;;
32216;SDS011;67098;51.140;4.088;2023-04-02T18:57:12;15.02;;;8.27;;
32216;SDS011;67098;51.140;4.088;2023-04-02T18:59:59;22.35;;;11.75;;
32216;SDS011;67098;51.140;4.088;2023-04-02T19:02:46;27.88;;;16.38;;
32216;SDS011;67098;51.140;4.088;2023-04-02T19:07:46;24.08;;;14.75;;
32216;SDS011;67098;51.140;4.088;2023-04-02T19:10:22;28.50;;;13.57;;
32216;SDS011;67098;51.140;4.088;2023-04-02T19:12:49;23.50;;;11.90;;
32216;SDS011;67098;51.140;4.088;2023-04-02T19:15:16;18.85;;;11.02;;
32216;SDS011;67098;51.140;4.088;2023-04-02T19:17:47;18.63;;;11.35;;
32216;SDS011;67098;51.140;4.088;2023-04-02T19:20:25;16.15;;;10.13;;
32216;SDS011;67098;51.140;4.088;2023-04-02T19:23:02;17.60;;;9.38;;
32216;SDS011;67098;51.140;4.088;2023-04-02T19:33:30;22.77;;;12.70;;
32216;SDS011;67098;51.140;4.088;2023-04-02T19:36:02;22.70;;;11.27;;
32216;SDS011;67098;51.140;4.088;2023-04-02T19:43:59;16.13;;;8.93;;
32216;SDS011;67098;51.140;4.088;2023-04-02T19:46:25;17.90;;;9.82;;
32216;SDS011;67098;51.140;4.088;2023-04-02T19:49:05;19.05;;;10.82;;
32216;SDS011;67098;51.140;4.088;2023-04-02T19:51:31;21.02;;;11.25;;
32216;SDS011;67098;51.140;4.088;2023-04-02T19:53:57;22.73;;;11.25;;
32216;SDS011;67098;51.140;4.088;2023-04-02T19:56:23;22.45;;;12.63;;
32216;SDS011;67098;51.140;4.088;2023-04-02T19:58:49;28.50;;;13.10;;
32216;SDS011;67098;51.140;4.088;2023-04-02T20:01:15;25.38;;;13.27;;
32216;SDS011;67098;51.140;4.088;2023-04-02T20:03:41;26.95;;;14.88;;
32216;SDS011;67098;51.140;4.088;2023-04-02T20:06:06;30.42;;;13.98;;
32216;SDS011;67098;51.140;4.088;2023-04-02T20:08:32;31.75;;;15.07;;
32216;SDS011;67098;51.140;4.088;2023-04-02T20:11:00;31.08;;;14.95;;
32216;SDS011;67098;51.140;4.088;2023-04-02T20:13:27;28.25;;;15.00;;
32216;SDS011;67098;51.140;4.088;2023-04-02T20:15:53;27.60;;;14.85;;
32216;SDS011;67098;51.140;4.088;2023-04-02T20:18:22;24.17;;;14.50;;
32216;SDS011;67098;51.140;4.088;2023-04-02T20:20:47;21.40;;;12.45;;
32216;SDS011;67098;51.140;4.088;2023-04-02T20:23:14;25.95;;;12.15;;
32216;SDS011;67098;51.140;4.088;2023-04-02T20:25:44;20.83;;;11.45;;
32216;SDS011;67098;51.140;4.088;2023-04-02T20:28:11;22.90;;;11.67;;
32216;SDS011;67098;51.140;4.088;2023-04-02T20:30:37;19.85;;;11.35;;
32216;SDS011;67098;51.140;4.088;2023-04-02T20:33:02;33.40;;;14.30;;
32216;SDS011;67098;51.140;4.088;2023-04-02T20:35:28;41.40;;;18.35;;
32216;SDS011;67098;51.140;4.088;2023-04-02T20:37:55;44.95;;;20.23;;